createdAt,value
2022-09-15T00:01:14.639Z,79.52
2022-09-15T00:03:42.820Z,78.28
2022-09-15T00:06:10.977Z,84.17
2022-09-15T00:08:39.113Z,85.43
2022-09-15T00:11:20.239Z,88.46
2022-09-15T00:13:47.989Z,82.46
2022-09-15T00:16:17.292Z,81.10
2022-09-15T00:18:46.279Z,88.32
2022-09-15T00:21:18.128Z,89.93
2022-09-15T00:23:46.289Z,88.94
2022-09-15T00:26:19.418Z,88.96
2022-09-15T00:28:48.699Z,82.99
2022-09-15T00:31:19.497Z,83.31
2022-09-15T00:33:49.481Z,84.14
2022-09-15T00:36:17.760Z,85.32
2022-09-15T00:38:45.649Z,93.55
2022-09-15T00:41:15.778Z,94.76
2022-09-15T00:43:50.696Z,94.47
2022-09-15T00:46:40.258Z,93.44
2022-09-15T00:49:19.499Z,93.37
2022-09-15T00:52:00.575Z,97.78
2022-09-15T00:54:43.485Z,94.75
2022-09-15T00:57:34.229Z,90.66
2022-09-15T01:00:05.388Z,90.11
2022-09-15T01:02:35.692Z,91.48
2022-09-15T01:05:09.337Z,92.01
2022-09-15T01:07:40.417Z,95.23
2022-09-15T01:10:35.463Z,97.13
2022-09-15T01:13:07.149Z,96.45
2022-09-15T01:15:53.649Z,95.47
2022-09-15T01:18:56.299Z,93.72
2022-09-15T01:21:58.112Z,96.65
2022-09-15T01:25:09.095Z,94.48
2022-09-15T01:27:52.202Z,92.49
2022-09-15T01:30:21.467Z,92.58
2022-09-15T01:33:27.484Z,88.90
2022-09-15T01:36:02.043Z,88.57
2022-09-15T01:39:06.634Z,86.49
2022-09-15T01:41:47.838Z,86.05
2022-09-15T01:44:20.291Z,84.68
2022-09-15T01:46:51.388Z,83.89
2022-09-15T01:49:23.191Z,84.46
2022-09-15T01:51:53.428Z,85.68
2022-09-15T01:54:29.060Z,88.38
2022-09-15T01:56:57.525Z,85.66
2022-09-15T01:59:25.470Z,87.22
2022-09-15T02:01:57.613Z,85.13
2022-09-15T02:04:34.199Z,87.10
2022-09-15T02:07:08.186Z,88.30
2022-09-15T02:09:40.758Z,87.02
2022-09-15T02:12:15.809Z,83.47
2022-09-15T02:15:08.954Z,84.95
2022-09-15T02:17:42.829Z,83.14
2022-09-15T02:20:15.720Z,84.40
2022-09-15T02:22:57.429Z,87.91
2022-09-15T02:25:32.218Z,87.43
2022-09-15T02:28:03.509Z,81.12
2022-09-15T02:30:32.626Z,81.33
2022-09-15T02:33:03.379Z,80.98
2022-09-15T02:35:33.633Z,82.03
2022-09-15T02:38:02.367Z,84.11
2022-09-15T02:40:31.730Z,81.70
2022-09-15T02:43:05.637Z,79.65
2022-09-15T02:45:34.183Z,79.90
2022-09-15T02:48:03.116Z,77.88
2022-09-15T02:50:31.602Z,79.69
2022-09-15T02:52:59.846Z,80.56
2022-09-15T02:55:29.206Z,83.70
2022-09-15T02:57:58.229Z,80.79
2022-09-15T03:00:28.578Z,79.08
2022-09-15T03:02:57.717Z,79.47
2022-09-15T03:05:30.068Z,78.47
2022-09-15T03:07:58.197Z,78.10
2022-09-15T03:10:26.418Z,80.82
2022-09-15T03:12:54.830Z,82.27
2022-09-15T03:15:24.890Z,79.62
2022-09-15T03:17:53.423Z,78.64
2022-09-15T03:20:28.468Z,85.20
2022-09-15T03:22:56.939Z,85.55
2022-09-15T03:25:27.100Z,82.45
2022-09-15T03:27:55.265Z,86.46
2022-09-15T03:30:23.350Z,82.01
2022-09-15T03:32:51.020Z,86.25
2022-09-15T03:35:18.817Z,84.96
2022-09-15T03:37:47.022Z,87.39
2022-09-15T03:40:14.993Z,86.97
2022-09-15T03:42:42.771Z,87.97
2022-09-15T03:45:10.954Z,85.85
2022-09-15T03:47:39.183Z,85.13
2022-09-15T03:50:07.064Z,84.20
2022-09-15T03:52:35.095Z,83.92
2022-09-15T03:55:02.828Z,82.35
2022-09-15T03:57:30.691Z,81.85
2022-09-15T03:59:58.828Z,82.21
2022-09-15T04:02:27.111Z,83.40
2022-09-15T04:04:55.459Z,81.48
2022-09-15T04:07:23.180Z,80.25
2022-09-15T04:09:50.978Z,80.54
2022-09-15T04:12:19.069Z,82.40
2022-09-15T04:14:46.940Z,80.87
2022-09-15T04:17:15.718Z,83.03
2022-09-15T04:19:43.808Z,82.75
2022-09-15T04:22:15.526Z,83.14
2022-09-15T04:24:48.174Z,82.44
2022-09-15T04:27:17.178Z,82.89
2022-09-15T04:29:45.291Z,81.56
2022-09-15T04:32:13.048Z,86.19
2022-09-15T04:34:41.588Z,84.03
2022-09-15T04:37:10.706Z,87.25
2022-09-15T04:39:38.507Z,88.94
2022-09-15T04:42:07.225Z,87.77
2022-09-15T04:44:35.368Z,89.48
2022-09-15T04:47:03.495Z,88.53
2022-09-15T04:49:31.818Z,87.20
2022-09-15T04:52:00.128Z,86.56
2022-09-15T04:54:28.143Z,89.05
2022-09-15T04:56:55.851Z,87.73
2022-09-15T04:59:23.968Z,90.38
2022-09-15T05:01:55.162Z,92.94
2022-09-15T05:04:23.390Z,88.51
2022-09-15T05:06:51.231Z,89.57
2022-09-15T05:09:18.998Z,87.41
2022-09-15T05:11:47.042Z,87.80
2022-09-15T05:14:14.841Z,89.23
2022-09-15T05:16:42.648Z,89.40
2022-09-15T05:19:13.638Z,88.75
2022-09-15T05:21:41.440Z,89.75
2022-09-15T05:24:09.200Z,88.68
2022-09-15T05:26:37.497Z,91.16
2022-09-15T05:29:05.246Z,92.76
2022-09-15T05:31:34.102Z,89.17
2022-09-15T05:34:04.508Z,92.27
2022-09-15T05:36:33.198Z,90.36
2022-09-15T05:39:01.938Z,89.32
2022-09-15T05:41:30.169Z,93.62
2022-09-15T05:43:58.823Z,92.78
2022-09-15T05:46:27.552Z,93.27
2022-09-15T05:48:57.237Z,92.65
2022-09-15T05:51:25.194Z,91.40
2022-09-15T05:53:53.090Z,91.83
2022-09-15T05:56:21.390Z,88.98
2022-09-15T05:58:50.068Z,90.27
2022-09-15T06:01:18.989Z,90.11
2022-09-15T06:03:47.727Z,87.47
2022-09-15T06:06:15.552Z,89.87
2022-09-15T06:08:47.986Z,89.22
2022-09-15T06:11:20.483Z,86.55
2022-09-15T06:13:48.582Z,84.41
2022-09-15T06:16:23.715Z,84.89
2022-09-15T06:18:52.950Z,85.79
2022-09-15T06:21:26.550Z,85.50
2022-09-15T06:24:03.421Z,85.01
2022-09-15T06:26:31.603Z,90.34
2022-09-15T06:29:05.286Z,85.78
2022-09-15T06:31:34.336Z,83.01
2022-09-15T06:34:03.952Z,85.33
2022-09-15T06:36:32.210Z,78.94
2022-09-15T06:39:00.513Z,81.62
2022-09-15T06:41:52.454Z,77.12
2022-09-15T06:44:20.470Z,79.44
2022-09-15T06:46:48.826Z,77.91
2022-09-15T06:49:16.820Z,77.16
2022-09-15T06:51:45.232Z,79.97
2022-09-15T06:54:15.084Z,81.71
2022-09-15T06:56:43.596Z,85.43
2022-09-15T06:59:12.835Z,82.49
2022-09-15T07:01:41.450Z,78.85
2022-09-15T07:04:10.149Z,81.71
2022-09-15T07:06:39.541Z,81.07
2022-09-15T07:09:07.669Z,79.76
2022-09-15T07:11:35.839Z,83.30
2022-09-15T07:14:04.558Z,84.28
2022-09-15T07:16:32.758Z,84.41
2022-09-15T07:19:02.766Z,79.81
2022-09-15T07:21:30.973Z,78.88
2022-09-15T07:24:00.712Z,79.80
2022-09-15T07:26:32.534Z,74.92
2022-09-15T07:29:03.110Z,74.68
2022-09-15T07:31:33.559Z,74.18
2022-09-15T07:34:01.593Z,72.95
2022-09-15T07:36:30.097Z,74.33
2022-09-15T07:38:58.899Z,73.62
2022-09-15T07:41:28.912Z,70.40
2022-09-15T07:43:58.653Z,72.33
2022-09-15T07:46:29.900Z,68.17
2022-09-15T07:48:58.226Z,71.27
2022-09-15T07:51:27.049Z,71.36
2022-09-15T07:53:55.171Z,72.55
2022-09-15T07:56:24.652Z,70.10
2022-09-15T07:58:53.069Z,71.58
2022-09-15T08:01:22.713Z,72.23
2022-09-15T08:03:52.555Z,68.85
2022-09-15T08:06:23.030Z,67.40
2022-09-15T08:08:56.345Z,68.99
2022-09-15T08:11:28.502Z,69.38
2022-09-15T08:13:56.991Z,70.82
2022-09-15T08:16:25.260Z,67.55
2022-09-15T08:18:54.262Z,68.03
2022-09-15T08:21:22.912Z,64.32
2022-09-15T08:23:56.365Z,63.19
2022-09-15T08:26:26.138Z,63.71
2022-09-15T08:28:54.465Z,59.90
2022-09-15T08:31:24.496Z,58.19
2022-09-15T08:33:54.822Z,57.70
2022-09-15T08:36:23.249Z,59.84
2022-09-15T08:38:51.213Z,57.61
2022-09-15T08:41:24.931Z,58.12
2022-09-15T08:44:04.991Z,55.08
2022-09-15T08:46:50.079Z,52.93
2022-09-15T08:49:50.446Z,55.86
2022-09-15T08:52:23.882Z,54.86
2022-09-15T08:54:54.113Z,54.80
2022-09-15T08:57:24.101Z,52.42
2022-09-15T08:59:52.640Z,50.64
2022-09-15T09:03:11.787Z,49.14
2022-09-15T09:05:48.038Z,49.11
2022-09-15T09:08:37.222Z,47.46
2022-09-15T09:11:31.275Z,46.33
2022-09-15T09:14:11.188Z,48.05
2022-09-15T09:16:48.458Z,46.96
2022-09-15T09:19:30.078Z,47.04
2022-09-15T09:22:11.062Z,45.79
2022-09-15T09:24:47.050Z,46.34
2022-09-15T09:27:20.949Z,46.29
2022-09-15T09:29:50.598Z,46.01
2022-09-15T09:32:25.347Z,43.63
2022-09-15T09:35:15.259Z,43.47
2022-09-15T09:37:43.870Z,43.50
2022-09-15T09:40:15.983Z,42.10
2022-09-15T09:42:45.179Z,42.25
2022-09-15T09:45:18.593Z,41.86
2022-09-15T09:47:47.145Z,40.82
2022-09-15T09:50:43.340Z,41.73
2022-09-15T09:53:33.596Z,40.52
2022-09-15T09:56:23.530Z,41.80
2022-09-15T09:58:52.360Z,42.48
2022-09-15T10:01:26.461Z,43.63
2022-09-15T10:04:16.630Z,43.12
2022-09-15T10:06:44.962Z,40.93
2022-09-15T10:09:18.393Z,43.60
2022-09-15T10:11:50.540Z,42.42
2022-09-15T10:14:36.230Z,43.86
2022-09-15T10:17:17.295Z,44.09
2022-09-15T10:19:56.111Z,44.10
2022-09-15T10:22:36.331Z,43.24
2022-09-15T10:25:19.923Z,45.61
2022-09-15T10:28:16.352Z,42.23
2022-09-15T10:31:04.266Z,44.76
2022-09-15T10:33:37.271Z,43.83
2022-09-15T10:36:08.511Z,43.79
